sensor_id;sensor_type;location;lat;lon;timestamp;P1;durP1;ratioP1;P2;durP2;ratioP2
16600;SDS011;34891;48.164;11.572;2023-12-28T00:00:21;4.18;;;1.48;;
16600;SDS011;34891;48.164;11.572;2023-12-28T00:05:25;0.68;;;0.55;;
16600;SDS011;34891;48.164;11.572;2023-12-28T00:10:28;1.10;;;0.82;;
16600;SDS011;34891;48.164;11.572;2023-12-28T00:15:30;3.58;;;1.25;;
16600;SDS011;34891;48.164;11.572;2023-12-28T00:20:34;3.08;;;1.38;;
16600;SDS011;34891;48.164;11.572;2023-12-28T00:25:37;1.90;;;0.73;;
16600;SDS011;34891;48.164;11.572;2023-12-28T00:30:39;3.33;;;1.10;;
16600;SDS011;34891;48.164;11.572;2023-12-28T00:35:43;0.50;;;0.40;;
16600;SDS011;34891;48.164;11.572;2023-12-28T00:40:46;2.92;;;1.45;;
16600;SDS011;34891;48.164;11.572;2023-12-28T00:45:48;1.38;;;0.50;;
16600;SDS011;34891;48.164;11.572;2023-12-28T00:50:52;3.20;;;1.35;;
16600;SDS011;34891;48.164;11.572;2023-12-28T00:55:56;0.50;;;0.32;;
16600;SDS011;34891;48.164;11.572;2023-12-28T01:00:59;3.20;;;0.98;;
16600;SDS011;34891;48.164;11.572;2023-12-28T01:06:03;3.10;;;1.10;;
16600;SDS011;34891;48.164;11.572;2023-12-28T01:11:06;1.92;;;0.93;;
16600;SDS011;34891;48.164;11.572;2023-12-28T01:16:12;4.97;;;1.45;;
16600;SDS011;34891;48.164;11.572;2023-12-28T01:21:15;3.75;;;1.33;;
16600;SDS011;34891;48.164;11.572;2023-12-28T01:26:18;2.05;;;0.80;;
16600;SDS011;34891;48.164;11.572;2023-12-28T01:31:21;1.58;;;0.93;;
16600;SDS011;34891;48.164;11.572;2023-12-28T01:36:25;2.67;;;0.93;;
16600;SDS011;34891;48.164;11.572;2023-12-28T01:41:30;1.25;;;0.55;;
16600;SDS011;34891;48.164;11.572;2023-12-28T01:46:33;0.68;;;0.43;;
16600;SDS011;34891;48.164;11.572;2023-12-28T01:51:37;2.58;;;0.82;;
16600;SDS011;34891;48.164;11.572;2023-12-28T01:56:40;2.65;;;0.30;;
16600;SDS011;34891;48.164;11.572;2023-12-28T02:01:42;0.85;;;0.30;;
16600;SDS011;34891;48.164;11.572;2023-12-28T02:06:46;3.20;;;1.25;;
16600;SDS011;34891;48.164;11.572;2023-12-28T02:11:49;1.45;;;0.90;;
16600;SDS011;34891;48.164;11.572;2023-12-28T02:16:54;3.63;;;1.40;;
16600;SDS011;34891;48.164;11.572;2023-12-28T02:21:58;2.58;;;1.10;;
16600;SDS011;34891;48.164;11.572;2023-12-28T02:27:03;2.22;;;1.20;;
16600;SDS011;34891;48.164;11.572;2023-12-28T02:37:08;1.52;;;0.75;;
16600;SDS011;34891;48.164;11.572;2023-12-28T02:42:12;1.80;;;0.88;;
16600;SDS011;34891;48.164;11.572;2023-12-28T02:47:15;0.75;;;0.45;;
16600;SDS011;34891;48.164;11.572;2023-12-28T02:52:17;0.45;;;0.32;;
16600;SDS011;34891;48.164;11.572;2023-12-28T02:57:21;3.17;;;1.23;;
16600;SDS011;34891;48.164;11.572;2023-12-28T03:02:24;1.50;;;0.70;;
16600;SDS011;34891;48.164;11.572;2023-12-28T03:07:27;0.30;;;0.25;;
16600;SDS011;34891;48.164;11.572;2023-12-28T03:12:31;1.58;;;0.63;;
16600;SDS011;34891;48.164;11.572;2023-12-28T03:17:34;2.28;;;0.70;;
16600;SDS011;34891;48.164;11.572;2023-12-28T03:22:38;0.90;;;0.20;;
16600;SDS011;34891;48.164;11.572;2023-12-28T03:27:44;0.20;;;0.20;;
16600;SDS011;34891;48.164;11.572;2023-12-28T03:32:46;1.58;;;0.85;;
16600;SDS011;34891;48.164;11.572;2023-12-28T03:37:49;1.13;;;0.80;;
16600;SDS011;34891;48.164;11.572;2023-12-28T03:42:53;4.30;;;0.30;;
16600;SDS011;34891;48.164;11.572;2023-12-28T03:52:58;0.68;;;0.43;;
16600;SDS011;34891;48.164;11.572;2023-12-28T03:58:02;1.35;;;0.65;;
16600;SDS011;34891;48.164;11.572;2023-12-28T04:03:05;0.38;;;0.30;;
16600;SDS011;34891;48.164;11.572;2023-12-28T04:08:08;0.10;;;0.08;;
16600;SDS011;34891;48.164;11.572;2023-12-28T04:13:13;1.20;;;0.60;;
16600;SDS011;34891;48.164;11.572;2023-12-28T04:18:16;0.60;;;0.32;;
16600;SDS011;34891;48.164;11.572;2023-12-28T04:23:19;1.15;;;0.70;;
16600;SDS011;34891;48.164;11.572;2023-12-28T04:28:23;2.03;;;0.73;;
16600;SDS011;34891;48.164;11.572;2023-12-28T04:33:26;1.02;;;0.32;;
16600;SDS011;34891;48.164;11.572;2023-12-28T04:38:28;0.40;;;0.40;;
16600;SDS011;34891;48.164;11.572;2023-12-28T04:43:32;1.02;;;0.45;;
16600;SDS011;34891;48.164;11.572;2023-12-28T04:48:35;0.70;;;0.30;;
16600;SDS011;34891;48.164;11.572;2023-12-28T04:53:38;0.20;;;0.20;;
16600;SDS011;34891;48.164;11.572;2023-12-28T04:58:43;0.20;;;0.20;;
16600;SDS011;34891;48.164;11.572;2023-12-28T05:03:45;1.35;;;0.28;;
16600;SDS011;34891;48.164;11.572;2023-12-28T05:08:48;1.58;;;0.70;;
16600;SDS011;34891;48.164;11.572;2023-12-28T05:13:52;0.55;;;0.32;;
16600;SDS011;34891;48.164;11.572;2023-12-28T05:18:55;0.98;;;0.60;;
16600;SDS011;34891;48.164;11.572;2023-12-28T05:23:57;2.05;;;0.82;;
16600;SDS011;34891;48.164;11.572;2023-12-28T05:29:01;6.75;;;0.77;;
16600;SDS011;34891;48.164;11.572;2023-12-28T05:34:04;1.17;;;0.30;;
16600;SDS011;34891;48.164;11.572;2023-12-28T05:39:07;0.55;;;0.40;;
16600;SDS011;34891;48.164;11.572;2023-12-28T05:44:12;0.10;;;0.10;;
16600;SDS011;34891;48.164;11.572;2023-12-28T05:49:15;1.60;;;0.65;;
16600;SDS011;34891;48.164;11.572;2023-12-28T05:54:18;0.20;;;0.20;;
16600;SDS011;34891;48.164;11.572;2023-12-28T05:59:22;0.80;;;0.50;;
16600;SDS011;34891;48.164;11.572;2023-12-28T06:04:27;0.20;;;0.20;;
16600;SDS011;34891;48.164;11.572;2023-12-28T06:09:30;0.63;;;0.35;;
16600;SDS011;34891;48.164;11.572;2023-12-28T06:14:34;0.63;;;0.60;;
16600;SDS011;34891;48.164;11.572;2023-12-28T06:19:37;0.65;;;0.47;;
16600;SDS011;34891;48.164;11.572;2023-12-28T06:24:40;0.53;;;0.50;;
16600;SDS011;34891;48.164;11.572;2023-12-28T06:29:44;2.10;;;0.80;;
16600;SDS011;34891;48.164;11.572;2023-12-28T06:34:47;2.13;;;0.77;;
16600;SDS011;34891;48.164;11.572;2023-12-28T06:39:49;1.17;;;0.70;;
16600;SDS011;34891;48.164;11.572;2023-12-28T06:44:54;2.65;;;1.00;;
16600;SDS011;34891;48.164;11.572;2023-12-28T06:49:56;3.08;;;0.98;;
16600;SDS011;34891;48.164;11.572;2023-12-28T06:54:59;2.80;;;0.40;;
16600;SDS011;34891;48.164;11.572;2023-12-28T07:00:04;1.77;;;0.60;;
16600;SDS011;34891;48.164;11.572;2023-12-28T07:05:06;4.65;;;0.90;;
16600;SDS011;34891;48.164;11.572;2023-12-28T07:10:09;1.17;;;0.90;;
16600;SDS011;34891;48.164;11.572;2023-12-28T07:15:14;0.55;;;0.45;;
16600;SDS011;34891;48.164;11.572;2023-12-28T07:20:17;4.65;;;1.40;;
16600;SDS011;34891;48.164;11.572;2023-12-28T07:25:19;2.38;;;1.13;;
16600;SDS011;34891;48.164;11.572;2023-12-28T07:30:24;3.55;;;1.20;;
16600;SDS011;34891;48.164;11.572;2023-12-28T07:35:26;3.03;;;1.00;;
16600;SDS011;34891;48.164;11.572;2023-12-28T07:40:29;2.63;;;1.23;;
16600;SDS011;34891;48.164;11.572;2023-12-28T07:45:36;2.38;;;1.15;;
16600;SDS011;34891;48.164;11.572;2023-12-28T07:50:40;2.00;;;1.33;;
16600;SDS011;34891;48.164;11.572;2023-12-28T07:55:42;2.72;;;1.13;;
16600;SDS011;34891;48.164;11.572;2023-12-28T08:00:47;2.17;;;1.35;;
16600;SDS011;34891;48.164;11.572;2023-12-28T08:05:50;2.88;;;1.08;;
16600;SDS011;34891;48.164;11.572;2023-12-28T08:10:53;4.63;;;1.50;;
16600;SDS011;34891;48.164;11.572;2023-12-28T08:15:57;2.65;;;1.30;;
16600;SDS011;34891;48.164;11.572;2023-12-28T08:26:02;4.07;;;1.48;;
16600;SDS011;34891;48.164;11.572;2023-12-28T08:31:07;2.70;;;1.27;;
16600;SDS011;34891;48.164;11.572;2023-12-28T08:36:10;2.95;;;1.67;;
16600;SDS011;34891;48.164;11.572;2023-12-28T08:41:24;4.17;;;1.40;;
16600;SDS011;34891;48.164;11.572;2023-12-28T08:46:29;5.65;;;1.80;;
16600;SDS011;34891;48.164;11.572;2023-12-28T08:51:32;6.20;;;2.42;;
16600;SDS011;34891;48.164;11.572;2023-12-28T08:56:35;4.20;;;1.60;;
16600;SDS011;34891;48.164;11.572;2023-12-28T09:01:40;2.90;;;1.80;;
16600;SDS011;34891;48.164;11.572;2023-12-28T09:06:43;3.78;;;2.13;;
16600;SDS011;34891;48.164;11.572;2023-12-28T09:11:46;4.53;;;1.67;;
16600;SDS011;34891;48.164;11.572;2023-12-28T09:16:50;5.40;;;1.83;;
16600;SDS011;34891;48.164;11.572;2023-12-28T09:21:53;3.78;;;1.73;;
16600;SDS011;34891;48.164;11.572;2023-12-28T09:26:56;5.80;;;1.75;;
16600;SDS011;34891;48.164;11.572;2023-12-28T09:32:00;4.77;;;1.43;;
16600;SDS011;34891;48.164;11.572;2023-12-28T09:37:03;3.08;;;1.38;;
16600;SDS011;34891;48.164;11.572;2023-12-28T09:42:06;5.88;;;1.83;;
16600;SDS011;34891;48.164;11.572;2023-12-28T09:47:14;2.90;;;1.30;;
16600;SDS011;34891;48.164;11.572;2023-12-28T09:52:16;1.98;;;1.33;;
16600;SDS011;34891;48.164;11.572;2023-12-28T09:57:19;2.77;;;1.60;;
16600;SDS011;34891;48.164;11.572;2023-12-28T10:02:24;1.85;;;1.10;;
16600;SDS011;34891;48.164;11.572;2023-12-28T10:07:26;3.03;;;1.33;;
16600;SDS011;34891;48.164;11.572;2023-12-28T10:12:31;1.70;;;1.20;;
16600;SDS011;34891;48.164;11.572;2023-12-28T10:17:35;2.80;;;1.40;;
16600;SDS011;34891;48.164;11.572;2023-12-28T10:22:38;1.77;;;1.00;;
16600;SDS011;34891;48.164;11.572;2023-12-28T10:27:40;1.00;;;0.90;;
16600;SDS011;34891;48.164;11.572;2023-12-28T10:37:48;0.60;;;0.60;;
16600;SDS011;34891;48.164;11.572;2023-12-28T10:42:54;1.50;;;0.98;;
16600;SDS011;34891;48.164;11.572;2023-12-28T10:48:00;1.85;;;0.98;;
16600;SDS011;34891;48.164;11.572;2023-12-28T10:53:10;1.52;;;1.00;;
16600;SDS011;34891;48.164;11.572;2023-12-28T10:58:14;2.08;;;1.00;;
16600;SDS011;34891;48.164;11.572;2023-12-28T11:03:22;0.90;;;0.80;;
16600;SDS011;34891;48.164;11.572;2023-12-28T11:08:27;2.40;;;0.98;;
16600;SDS011;34891;48.164;11.572;2023-12-28T11:13:32;0.90;;;0.82;;
16600;SDS011;34891;48.164;11.572;2023-12-28T11:18:34;1.70;;;0.97;;
16600;SDS011;34891;48.164;11.572;2023-12-28T11:23:38;2.22;;;1.10;;
16600;SDS011;34891;48.164;11.572;2023-12-28T11:28:41;1.77;;;1.05;;
16600;SDS011;34891;48.164;11.572;2023-12-28T11:33:44;2.22;;;1.23;;
16600;SDS011;34891;48.164;11.572;2023-12-28T11:38:49;3.28;;;1.40;;
16600;SDS011;34891;48.164;11.572;2023-12-28T11:43:53;7.20;;;1.45;;
16600;SDS011;34891;48.164;11.572;2023-12-28T11:49:02;5.70;;;1.80;;
16600;SDS011;34891;48.164;11.572;2023-12-28T11:54:06;2.95;;;1.40;;
16600;SDS011;34891;48.164;11.572;2023-12-28T12:04:12;1.80;;;0.90;;
16600;SDS011;34891;48.164;11.572;2023-12-28T12:09:16;1.27;;;0.75;;
16600;SDS011;34891;48.164;11.572;2023-12-28T12:14:19;3.15;;;1.17;;
16600;SDS011;34891;48.164;11.572;2023-12-28T12:19:22;2.55;;;1.05;;
16600;SDS011;34891;48.164;11.572;2023-12-28T12:24:26;2.70;;;1.20;;
16600;SDS011;34891;48.164;11.572;2023-12-28T12:34:31;1.80;;;1.30;;
16600;SDS011;34891;48.164;11.572;2023-12-28T12:39:35;1.90;;;1.13;;
16600;SDS011;34891;48.164;11.572;2023-12-28T12:49:40;1.98;;;0.77;;
16600;SDS011;34891;48.164;11.572;2023-12-28T12:54:53;1.35;;;0.95;;
16600;SDS011;34891;48.164;11.572;2023-12-28T12:59:56;2.45;;;1.10;;
16600;SDS011;34891;48.164;11.572;2023-12-28T13:04:58;1.60;;;0.90;;
16600;SDS011;34891;48.164;11.572;2023-12-28T13:10:03;0.47;;;0.45;;
16600;SDS011;34891;48.164;11.572;2023-12-28T13:15:07;3.17;;;1.20;;
16600;SDS011;34891;48.164;11.572;2023-12-28T13:20:11;3.35;;;1.20;;
16600;SDS011;34891;48.164;11.572;2023-12-28T13:25:15;3.58;;;0.90;;
16600;SDS011;34891;48.164;11.572;2023-12-28T13:30:17;3.08;;;0.93;;
16600;SDS011;34891;48.164;11.572;2023-12-28T13:35:20;2.50;;;0.70;;
16600;SDS011;34891;48.164;11.572;2023-12-28T13:40:24;1.90;;;0.55;;
16600;SDS011;34891;48.164;11.572;2023-12-28T13:45:27;1.88;;;0.80;;
16600;SDS011;34891;48.164;11.572;2023-12-28T13:50:29;1.65;;;1.20;;
16600;SDS011;34891;48.164;11.572;2023-12-28T13:55:34;2.33;;;0.60;;
16600;SDS011;34891;48.164;11.572;2023-12-28T14:00:37;3.47;;;1.10;;
16600;SDS011;34891;48.164;11.572;2023-12-28T14:05:40;2.58;;;0.95;;
16600;SDS011;34891;48.164;11.572;2023-12-28T14:10:45;1.42;;;0.88;;
16600;SDS011;34891;48.164;11.572;2023-12-28T14:15:47;2.10;;;1.05;;
16600;SDS011;34891;48.164;11.572;2023-12-28T14:20:50;5.60;;;1.00;;
16600;SDS011;34891;48.164;11.572;2023-12-28T14:25:55;2.72;;;0.93;;
16600;SDS011;34891;48.164;11.572;2023-12-28T14:30:57;1.25;;;0.70;;
16600;SDS011;34891;48.164;11.572;2023-12-28T14:36:00;3.22;;;1.05;;
16600;SDS011;34891;48.164;11.572;2023-12-28T14:41:05;1.10;;;0.53;;
16600;SDS011;34891;48.164;11.572;2023-12-28T14:46:07;4.50;;;1.40;;
16600;SDS011;34891;48.164;11.572;2023-12-28T14:51:10;2.47;;;1.00;;
16600;SDS011;34891;48.164;11.572;2023-12-28T14:56:14;2.60;;;1.10;;
16600;SDS011;34891;48.164;11.572;2023-12-28T15:06:21;6.25;;;1.00;;
16600;SDS011;34891;48.164;11.572;2023-12-28T15:11:26;1.60;;;0.95;;
16600;SDS011;34891;48.164;11.572;2023-12-28T15:16:46;2.55;;;1.10;;
16600;SDS011;34891;48.164;11.572;2023-12-28T15:21:49;1.85;;;0.93;;
16600;SDS011;34891;48.164;11.572;2023-12-28T15:26:53;3.00;;;1.10;;
16600;SDS011;34891;48.164;11.572;2023-12-28T15:31:56;0.65;;;0.65;;
16600;SDS011;34891;48.164;11.572;2023-12-28T15:36:58;1.92;;;0.80;;
16600;SDS011;34891;48.164;11.572;2023-12-28T15:42:03;2.47;;;1.25;;
16600;SDS011;34891;48.164;11.572;2023-12-28T15:47:05;2.47;;;1.25;;
16600;SDS011;34891;48.164;11.572;2023-12-28T15:52:08;2.63;;;0.80;;
16600;SDS011;34891;48.164;11.572;2023-12-28T15:57:13;3.97;;;1.40;;
16600;SDS011;34891;48.164;11.572;2023-12-28T16:02:15;2.63;;;1.17;;
16600;SDS011;34891;48.164;11.572;2023-12-28T16:07:18;2.53;;;1.55;;
16600;SDS011;34891;48.164;11.572;2023-12-28T16:12:22;2.15;;;1.05;;
16600;SDS011;34891;48.164;11.572;2023-12-28T16:17:25;1.75;;;0.73;;
16600;SDS011;34891;48.164;11.572;2023-12-28T16:22:28;2.55;;;1.05;;
16600;SDS011;34891;48.164;11.572;2023-12-28T16:27:32;3.65;;;0.90;;
16600;SDS011;34891;48.164;11.572;2023-12-28T16:32:34;1.40;;;0.55;;
16600;SDS011;34891;48.164;11.572;2023-12-28T16:37:37;0.85;;;0.45;;
16600;SDS011;34891;48.164;11.572;2023-12-28T16:42:41;2.78;;;1.05;;
16600;SDS011;34891;48.164;11.572;2023-12-28T16:47:44;1.08;;;0.70;;
16600;SDS011;34891;48.164;11.572;2023-12-28T16:52:47;0.95;;;0.50;;
16600;SDS011;34891;48.164;11.572;2023-12-28T16:57:51;1.15;;;0.65;;
16600;SDS011;34891;48.164;11.572;2023-12-28T17:02:54;2.13;;;1.30;;
16600;SDS011;34891;48.164;11.572;2023-12-28T17:07:57;2.20;;;1.15;;
16600;SDS011;34891;48.164;11.572;2023-12-28T17:13:01;1.75;;;1.10;;
16600;SDS011;34891;48.164;11.572;2023-12-28T17:18:05;1.73;;;1.00;;
16600;SDS011;34891;48.164;11.572;2023-12-28T17:23:09;4.18;;;1.63;;
16600;SDS011;34891;48.164;11.572;2023-12-28T17:28:15;1.65;;;1.20;;
16600;SDS011;34891;48.164;11.572;2023-12-28T17:33:20;2.45;;;1.23;;
16600;SDS011;34891;48.164;11.572;2023-12-28T17:38:23;3.30;;;1.00;;
16600;SDS011;34891;48.164;11.572;2023-12-28T17:43:32;2.92;;;0.80;;
16600;SDS011;34891;48.164;11.572;2023-12-28T17:48:39;3.08;;;1.27;;
16600;SDS011;34891;48.164;11.572;2023-12-28T17:53:42;3.75;;;1.17;;
16600;SDS011;34891;48.164;11.572;2023-12-28T17:58:47;1.10;;;0.77;;
16600;SDS011;34891;48.164;11.572;2023-12-28T18:03:49;2.30;;;1.13;;
16600;SDS011;34891;48.164;11.572;2023-12-28T18:08:52;4.13;;;1.15;;
16600;SDS011;34891;48.164;11.572;2023-12-28T18:13:56;1.65;;;1.13;;
16600;SDS011;34891;48.164;11.572;2023-12-28T18:24:01;0.40;;;0.30;;
16600;SDS011;34891;48.164;11.572;2023-12-28T18:29:06;0.82;;;0.60;;
16600;SDS011;34891;48.164;11.572;2023-12-28T18:34:08;1.67;;;1.05;;
16600;SDS011;34891;48.164;11.572;2023-12-28T18:39:11;3.40;;;1.05;;
16600;SDS011;34891;48.164;11.572;2023-12-28T18:44:18;1.55;;;0.85;;
16600;SDS011;34891;48.164;11.572;2023-12-28T18:49:20;1.70;;;1.02;;
16600;SDS011;34891;48.164;11.572;2023-12-28T18:54:23;2.33;;;1.00;;
16600;SDS011;34891;48.164;11.572;2023-12-28T18:59:27;2.13;;;1.30;;
16600;SDS011;34891;48.164;11.572;2023-12-28T19:04:30;3.03;;;0.60;;
16600;SDS011;34891;48.164;11.572;2023-12-28T19:09:32;2.63;;;1.50;;
16600;SDS011;34891;48.164;11.572;2023-12-28T19:14:39;3.00;;;1.40;;
16600;SDS011;34891;48.164;11.572;2023-12-28T19:19:42;1.77;;;0.73;;
16600;SDS011;34891;48.164;11.572;2023-12-28T19:24:45;2.78;;;1.35;;
16600;SDS011;34891;48.164;11.572;2023-12-28T19:29:50;1.87;;;0.80;;
16600;SDS011;34891;48.164;11.572;2023-12-28T19:34:53;5.00;;;1.55;;
16600;SDS011;34891;48.164;11.572;2023-12-28T19:39:59;4.18;;;1.67;;
16600;SDS011;34891;48.164;11.572;2023-12-28T19:45:03;11.45;;;2.25;;
16600;SDS011;34891;48.164;11.572;2023-12-28T19:50:06;5.55;;;2.30;;
16600;SDS011;34891;48.164;11.572;2023-12-28T19:55:09;4.22;;;1.65;;
16600;SDS011;34891;48.164;11.572;2023-12-28T20:00:14;4.32;;;2.40;;
16600;SDS011;34891;48.164;11.572;2023-12-28T20:05:18;1.52;;;0.82;;
16600;SDS011;34891;48.164;11.572;2023-12-28T20:10:21;4.03;;;2.47;;
16600;SDS011;34891;48.164;11.572;2023-12-28T20:15:25;6.10;;;1.73;;
16600;SDS011;34891;48.164;11.572;2023-12-28T20:20:28;1.92;;;1.10;;
16600;SDS011;34891;48.164;11.572;2023-12-28T20:25:31;2.88;;;1.50;;
16600;SDS011;34891;48.164;11.572;2023-12-28T20:30:36;4.17;;;2.03;;
16600;SDS011;34891;48.164;11.572;2023-12-28T20:35:38;4.07;;;1.90;;
16600;SDS011;34891;48.164;11.572;2023-12-28T20:40:41;5.45;;;2.35;;
16600;SDS011;34891;48.164;11.572;2023-12-28T20:45:45;7.38;;;2.55;;
16600;SDS011;34891;48.164;11.572;2023-12-28T20:50:47;4.50;;;1.98;;
16600;SDS011;34891;48.164;11.572;2023-12-28T20:55:50;5.50;;;1.98;;
16600;SDS011;34891;48.164;11.572;2023-12-28T21:00:54;3.83;;;1.95;;
16600;SDS011;34891;48.164;11.572;2023-12-28T21:05:57;6.78;;;2.10;;
16600;SDS011;34891;48.164;11.572;2023-12-28T21:11:00;2.83;;;1.47;;
16600;SDS011;34891;48.164;11.572;2023-12-28T21:16:04;5.40;;;2.30;;
16600;SDS011;34891;48.164;11.572;2023-12-28T21:21:07;5.22;;;2.50;;
16600;SDS011;34891;48.164;11.572;2023-12-28T21:26:12;5.53;;;2.10;;
16600;SDS011;34891;48.164;11.572;2023-12-28T21:31:16;4.50;;;2.08;;
16600;SDS011;34891;48.164;11.572;2023-12-28T21:36:19;2.35;;;1.15;;
16600;SDS011;34891;48.164;11.572;2023-12-28T21:41:22;4.20;;;1.98;;
16600;SDS011;34891;48.164;11.572;2023-12-28T21:46:26;5.65;;;1.98;;
16600;SDS011;34891;48.164;11.572;2023-12-28T21:51:29;2.60;;;1.05;;
16600;SDS011;34891;48.164;11.572;2023-12-28T21:56:31;4.22;;;1.27;;
16600;SDS011;34891;48.164;11.572;2023-12-28T22:06:40;1.67;;;1.50;;
16600;SDS011;34891;48.164;11.572;2023-12-28T22:11:43;2.22;;;1.20;;
16600;SDS011;34891;48.164;11.572;2023-12-28T22:16:46;3.13;;;1.30;;
16600;SDS011;34891;48.164;11.572;2023-12-28T22:21:51;2.45;;;1.27;;
16600;SDS011;34891;48.164;11.572;2023-12-28T22:26:54;2.28;;;1.20;;
16600;SDS011;34891;48.164;11.572;2023-12-28T22:31:56;2.97;;;1.20;;
16600;SDS011;34891;48.164;11.572;2023-12-28T22:37:00;4.43;;;1.08;;
16600;SDS011;34891;48.164;11.572;2023-12-28T22:47:06;1.23;;;0.60;;
16600;SDS011;34891;48.164;11.572;2023-12-28T22:52:10;1.30;;;0.65;;
16600;SDS011;34891;48.164;11.572;2023-12-28T22:57:17;1.67;;;0.85;;
16600;SDS011;34891;48.164;11.572;2023-12-28T23:02:19;1.10;;;0.88;;
16600;SDS011;34891;48.164;11.572;2023-12-28T23:07:23;1.65;;;0.80;;
16600;SDS011;34891;48.164;11.572;2023-12-28T23:12:27;2.15;;;1.05;;
16600;SDS011;34891;48.164;11.572;2023-12-28T23:17:33;2.03;;;0.90;;
16600;SDS011;34891;48.164;11.572;2023-12-28T23:22:44;2.70;;;1.23;;
16600;SDS011;34891;48.164;11.572;2023-12-28T23:27:47;2.00;;;1.40;;
16600;SDS011;34891;48.164;11.572;2023-12-28T23:32:50;1.20;;;0.87;;
16600;SDS011;34891;48.164;11.572;2023-12-28T23:37:54;3.08;;;1.52;;
16600;SDS011;34891;48.164;11.572;2023-12-28T23:42:57;3.53;;;0.73;;
16600;SDS011;34891;48.164;11.572;2023-12-28T23:48:00;1.00;;;0.70;;
16600;SDS011;34891;48.164;11.572;2023-12-28T23:53:05;1.98;;;0.70;;
16600;SDS011;34891;48.164;11.572;2023-12-28T23:58:07;2.33;;;1.20;;
